sensor_id;sensor_type;location;lat;lon;timestamp;pressure;altitude;pressure_sealevel;temperature;humidity
59329;BME280;45100;46.926;7.452;2023-04-03T00:00:57;95536.77;;;6.87;97.70
59329;BME280;45100;46.926;7.452;2023-04-03T00:03:28;95533.61;;;6.86;97.67
59329;BME280;45100;46.926;7.452;2023-04-03T00:08:33;95533.50;;;6.87;98.00
59329;BME280;45100;46.926;7.452;2023-04-03T00:11:01;95537.81;;;6.89;98.00
59329;BME280;45100;46.926;7.452;2023-04-03T00:13:32;95536.47;;;6.88;97.28
59329;BME280;45100;46.926;7.452;2023-04-03T00:16:04;95528.03;;;6.86;97.08
59329;BME280;45100;46.926;7.452;2023-04-03T00:18:32;95527.80;;;6.86;97.15
59329;BME280;45100;46.926;7.452;2023-04-03T00:21:03;95523.55;;;6.85;96.91
59329;BME280;45100;46.926;7.452;2023-04-03T00:23:34;95532.17;;;6.84;96.25
59329;BME280;45100;46.926;7.452;2023-04-03T00:28:37;95539.89;;;6.78;96.22
59329;BME280;45100;46.926;7.452;2023-04-03T00:31:07;95538.12;;;6.77;96.46
59329;BME280;45100;46.926;7.452;2023-04-03T00:33:38;95535.42;;;6.77;96.52
59329;BME280;45100;46.926;7.452;2023-04-03T00:36:10;95528.97;;;6.78;96.49
59329;BME280;45100;46.926;7.452;2023-04-03T00:38:39;95526.22;;;6.79;96.41
59329;BME280;45100;46.926;7.452;2023-04-03T00:41:10;95526.41;;;6.79;96.56
59329;BME280;45100;46.926;7.452;2023-04-03T00:43:41;95524.69;;;6.80;96.59
59329;BME280;45100;46.926;7.452;2023-04-03T00:46:11;95520.45;;;6.80;96.61
59329;BME280;45100;46.926;7.452;2023-04-03T00:48:45;95519.62;;;6.81;96.58
59329;BME280;45100;46.926;7.452;2023-04-03T00:51:14;95517.89;;;6.82;96.80
59329;BME280;45100;46.926;7.452;2023-04-03T00:53:48;95510.75;;;6.83;96.66
59329;BME280;45100;46.926;7.452;2023-04-03T00:56:15;95514.09;;;6.84;96.18
59329;BME280;45100;46.926;7.452;2023-04-03T00:58:58;95512.92;;;6.85;96.13
59329;BME280;45100;46.926;7.452;2023-04-03T01:01:17;95511.23;;;6.87;95.86
59329;BME280;45100;46.926;7.452;2023-04-03T01:03:43;95510.48;;;6.89;95.78
59329;BME280;45100;46.926;7.452;2023-04-03T01:06:16;95505.59;;;6.91;95.31
59329;BME280;45100;46.926;7.452;2023-04-03T01:08:44;95506.31;;;6.93;94.62
59329;BME280;45100;46.926;7.452;2023-04-03T01:13:50;95506.23;;;6.91;94.14
59329;BME280;45100;46.926;7.452;2023-04-03T01:16:20;95504.96;;;6.89;94.21
59329;BME280;45100;46.926;7.452;2023-04-03T01:18:51;95507.67;;;6.84;93.93
59329;BME280;45100;46.926;7.452;2023-04-03T01:26:23;95509.92;;;6.75;95.12
59329;BME280;45100;46.926;7.452;2023-04-03T01:28:54;95509.70;;;6.76;95.89
59329;BME280;45100;46.926;7.452;2023-04-03T01:31:45;95505.57;;;6.76;96.00
59329;BME280;45100;46.926;7.452;2023-04-03T01:33:54;95512.02;;;6.78;95.85
59329;BME280;45100;46.926;7.452;2023-04-03T01:36:28;95510.80;;;6.79;96.10
59329;BME280;45100;46.926;7.452;2023-04-03T01:38:57;95512.78;;;6.81;96.32
59329;BME280;45100;46.926;7.452;2023-04-03T01:41:27;95513.94;;;6.84;96.29
59329;BME280;45100;46.926;7.452;2023-04-03T01:43:57;95510.88;;;6.84;96.45
59329;BME280;45100;46.926;7.452;2023-04-03T01:46:27;95511.52;;;6.84;96.58
59329;BME280;45100;46.926;7.452;2023-04-03T01:48:58;95509.53;;;6.83;96.84
59329;BME280;45100;46.926;7.452;2023-04-03T01:51:28;95508.95;;;6.84;96.99
59329;BME280;45100;46.926;7.452;2023-04-03T01:53:59;95508.82;;;6.83;97.01
59329;BME280;45100;46.926;7.452;2023-04-03T01:56:30;95511.59;;;6.79;96.11
59329;BME280;45100;46.926;7.452;2023-04-03T01:59:00;95511.05;;;6.74;96.48
59329;BME280;45100;46.926;7.452;2023-04-03T02:01:31;95509.39;;;6.73;96.98
59329;BME280;45100;46.926;7.452;2023-04-03T02:04:01;95507.83;;;6.74;97.27
59329;BME280;45100;46.926;7.452;2023-04-03T02:06:32;95511.05;;;6.75;97.33
59329;BME280;45100;46.926;7.452;2023-04-03T02:09:03;95514.27;;;6.76;97.36
59329;BME280;45100;46.926;7.452;2023-04-03T02:11:34;95511.14;;;6.78;97.42
59329;BME280;45100;46.926;7.452;2023-04-03T02:14:04;95514.06;;;6.81;97.45
59329;BME280;45100;46.926;7.452;2023-04-03T02:16:35;95512.98;;;6.82;97.48
59329;BME280;45100;46.926;7.452;2023-04-03T02:19:05;95508.88;;;6.82;97.08
59329;BME280;45100;46.926;7.452;2023-04-03T02:21:36;95513.70;;;6.80;96.63
59329;BME280;45100;46.926;7.452;2023-04-03T02:24:06;95515.38;;;6.80;96.73
59329;BME280;45100;46.926;7.452;2023-04-03T02:26:37;95515.21;;;6.80;97.00
59329;BME280;45100;46.926;7.452;2023-04-03T02:29:08;95510.36;;;6.83;97.17
59329;BME280;45100;46.926;7.452;2023-04-03T02:31:38;95510.70;;;6.85;96.92
59329;BME280;45100;46.926;7.452;2023-04-03T02:34:09;95512.28;;;6.85;96.58
59329;BME280;45100;46.926;7.452;2023-04-03T02:36:39;95513.70;;;6.85;96.59
59329;BME280;45100;46.926;7.452;2023-04-03T02:39:10;95510.73;;;6.85;96.22
59329;BME280;45100;46.926;7.452;2023-04-03T02:41:41;95511.83;;;6.86;96.47
59329;BME280;45100;46.926;7.452;2023-04-03T02:44:12;95512.87;;;6.86;96.51
59329;BME280;45100;46.926;7.452;2023-04-03T02:46:42;95511.41;;;6.85;95.17
59329;BME280;45100;46.926;7.452;2023-04-03T02:49:12;95512.84;;;6.81;94.30
59329;BME280;45100;46.926;7.452;2023-04-03T02:51:43;95514.28;;;6.77;93.82
59329;BME280;45100;46.926;7.452;2023-04-03T02:54:13;95517.56;;;6.72;91.51
59329;BME280;45100;46.926;7.452;2023-04-03T02:56:44;95513.02;;;6.64;92.41
59329;BME280;45100;46.926;7.452;2023-04-03T02:59:15;95519.51;;;6.58;93.21
59329;BME280;45100;46.926;7.452;2023-04-03T03:01:45;95526.11;;;6.54;93.30
59329;BME280;45100;46.926;7.452;2023-04-03T03:04:15;95526.56;;;6.51;92.88
59329;BME280;45100;46.926;7.452;2023-04-03T03:06:47;95524.57;;;6.48;93.09
59329;BME280;45100;46.926;7.452;2023-04-03T03:09:17;95523.61;;;6.48;93.54
59329;BME280;45100;46.926;7.452;2023-04-03T03:11:47;95524.55;;;6.49;93.74
59329;BME280;45100;46.926;7.452;2023-04-03T03:14:18;95522.88;;;6.49;93.78
59329;BME280;45100;46.926;7.452;2023-04-03T03:16:48;95529.02;;;6.48;93.58
59329;BME280;45100;46.926;7.452;2023-04-03T03:19:19;95527.81;;;6.46;93.32
59329;BME280;45100;46.926;7.452;2023-04-03T03:21:51;95527.17;;;6.43;93.01
59329;BME280;45100;46.926;7.452;2023-04-03T03:24:20;95530.38;;;6.42;93.52
59329;BME280;45100;46.926;7.452;2023-04-03T03:26:50;95528.33;;;6.40;92.88
59329;BME280;45100;46.926;7.452;2023-04-03T03:29:21;95522.05;;;6.39;92.62
59329;BME280;45100;46.926;7.452;2023-04-03T03:31:52;95516.52;;;6.37;92.42
59329;BME280;45100;46.926;7.452;2023-04-03T03:34:22;95526.66;;;6.33;92.44
59329;BME280;45100;46.926;7.452;2023-04-03T03:36:53;95528.88;;;6.27;92.48
59329;BME280;45100;46.926;7.452;2023-04-03T03:39:23;95534.38;;;6.20;91.96
59329;BME280;45100;46.926;7.452;2023-04-03T03:41:54;95532.05;;;6.14;91.83
59329;BME280;45100;46.926;7.452;2023-04-03T03:44:25;95528.27;;;6.10;91.63
59329;BME280;45100;46.926;7.452;2023-04-03T03:46:56;95532.86;;;6.07;90.95
59329;BME280;45100;46.926;7.452;2023-04-03T03:49:26;95532.95;;;6.05;90.90
59329;BME280;45100;46.926;7.452;2023-04-03T03:51:56;95535.62;;;6.03;90.78
59329;BME280;45100;46.926;7.452;2023-04-03T03:54:27;95534.59;;;6.00;91.19
59329;BME280;45100;46.926;7.452;2023-04-03T03:56:57;95542.34;;;5.94;90.90
59329;BME280;45100;46.926;7.452;2023-04-03T03:59:28;95541.64;;;5.85;91.09
59329;BME280;45100;46.926;7.452;2023-04-03T04:01:58;95538.00;;;5.77;91.73
59329;BME280;45100;46.926;7.452;2023-04-03T04:04:29;95541.82;;;5.73;92.25
59329;BME280;45100;46.926;7.452;2023-04-03T04:07:01;95535.64;;;5.71;92.25
59329;BME280;45100;46.926;7.452;2023-04-03T04:09:30;95538.83;;;5.72;92.60
59329;BME280;45100;46.926;7.452;2023-04-03T04:12:00;95540.63;;;5.73;92.42
59329;BME280;45100;46.926;7.452;2023-04-03T04:14:31;95544.69;;;5.74;92.19
59329;BME280;45100;46.926;7.452;2023-04-03T04:17:03;95541.37;;;5.73;91.76
59329;BME280;45100;46.926;7.452;2023-04-03T04:19:33;95544.48;;;5.71;92.51
59329;BME280;45100;46.926;7.452;2023-04-03T04:22:03;95547.78;;;5.71;92.92
59329;BME280;45100;46.926;7.452;2023-04-03T04:24:34;95546.45;;;5.72;93.14
59329;BME280;45100;46.926;7.452;2023-04-03T04:27:04;95550.91;;;5.74;93.13
59329;BME280;45100;46.926;7.452;2023-04-03T04:29:37;95548.58;;;5.75;92.28
59329;BME280;45100;46.926;7.452;2023-04-03T04:32:05;95553.97;;;5.75;91.74
59329;BME280;45100;46.926;7.452;2023-04-03T04:34:36;95546.49;;;5.71;91.45
59329;BME280;45100;46.926;7.452;2023-04-03T04:37:06;95545.01;;;5.70;92.20
59329;BME280;45100;46.926;7.452;2023-04-03T04:39:37;95545.42;;;5.71;92.35
59329;BME280;45100;46.926;7.452;2023-04-03T04:42:13;95549.59;;;5.71;92.35
59329;BME280;45100;46.926;7.452;2023-04-03T04:44:39;95550.16;;;5.71;92.27
59329;BME280;45100;46.926;7.452;2023-04-03T04:47:09;95550.13;;;5.72;92.06
59329;BME280;45100;46.926;7.452;2023-04-03T04:49:40;95552.88;;;5.71;91.59
59329;BME280;45100;46.926;7.452;2023-04-03T04:52:11;95549.73;;;5.70;91.38
59329;BME280;45100;46.926;7.452;2023-04-03T04:54:41;95550.62;;;5.68;91.38
59329;BME280;45100;46.926;7.452;2023-04-03T04:57:12;95553.39;;;5.67;91.66
59329;BME280;45100;46.926;7.452;2023-04-03T04:59:42;95550.48;;;5.63;91.13
59329;BME280;45100;46.926;7.452;2023-04-03T05:02:13;95559.69;;;5.61;91.58
59329;BME280;45100;46.926;7.452;2023-04-03T05:04:44;95555.54;;;5.60;91.80
59329;BME280;45100;46.926;7.452;2023-04-03T05:07:14;95555.22;;;5.60;92.43
59329;BME280;45100;46.926;7.452;2023-04-03T05:09:45;95556.31;;;5.59;92.00
59329;BME280;45100;46.926;7.452;2023-04-03T05:12:16;95557.26;;;5.57;92.60
59329;BME280;45100;46.926;7.452;2023-04-03T05:14:46;95557.08;;;5.58;92.66
59329;BME280;45100;46.926;7.452;2023-04-03T05:17:16;95556.52;;;5.58;92.11
59329;BME280;45100;46.926;7.452;2023-04-03T05:19:47;95560.89;;;5.56;92.06
59329;BME280;45100;46.926;7.452;2023-04-03T05:22:17;95562.75;;;5.54;91.78
59329;BME280;45100;46.926;7.452;2023-04-03T05:24:48;95566.44;;;5.52;92.09
59329;BME280;45100;46.926;7.452;2023-04-03T05:27:18;95566.71;;;5.51;92.58
59329;BME280;45100;46.926;7.452;2023-04-03T05:29:49;95573.21;;;5.51;92.42
59329;BME280;45100;46.926;7.452;2023-04-03T05:32:22;95578.42;;;5.46;91.44
59329;BME280;45100;46.926;7.452;2023-04-03T05:34:50;95577.30;;;5.39;91.12
59329;BME280;45100;46.926;7.452;2023-04-03T05:37:21;95576.89;;;5.35;91.68
59329;BME280;45100;46.926;7.452;2023-04-03T05:39:52;95579.07;;;5.33;91.47
59329;BME280;45100;46.926;7.452;2023-04-03T05:42:22;95583.02;;;5.29;91.08
59329;BME280;45100;46.926;7.452;2023-04-03T05:44:53;95584.27;;;5.23;90.09
59329;BME280;45100;46.926;7.452;2023-04-03T05:47:24;95578.05;;;5.16;90.48
59329;BME280;45100;46.926;7.452;2023-04-03T05:49:54;95582.25;;;5.14;91.36
59329;BME280;45100;46.926;7.452;2023-04-03T05:52:28;95587.47;;;5.14;91.12
59329;BME280;45100;46.926;7.452;2023-04-03T05:54:57;95585.45;;;5.14;90.75
59329;BME280;45100;46.926;7.452;2023-04-03T05:57:27;95581.94;;;5.15;91.13
59329;BME280;45100;46.926;7.452;2023-04-03T05:59:57;95584.16;;;5.18;91.80
59329;BME280;45100;46.926;7.452;2023-04-03T06:05:01;95596.12;;;5.24;90.73
59329;BME280;45100;46.926;7.452;2023-04-03T06:07:31;95586.05;;;5.25;89.90
59329;BME280;45100;46.926;7.452;2023-04-03T06:12:37;95587.78;;;5.28;89.13
59329;BME280;45100;46.926;7.452;2023-04-03T06:15:10;95586.78;;;5.25;88.58
59329;BME280;45100;46.926;7.452;2023-04-03T06:17:38;95584.87;;;5.17;89.25
59329;BME280;45100;46.926;7.452;2023-04-03T06:20:10;95591.59;;;5.06;90.15
59329;BME280;45100;46.926;7.452;2023-04-03T06:22:39;95599.81;;;5.02;91.95
59329;BME280;45100;46.926;7.452;2023-04-03T06:25:11;95598.84;;;5.05;92.65
59329;BME280;45100;46.926;7.452;2023-04-03T06:27:41;95596.77;;;5.07;91.57
59329;BME280;45100;46.926;7.452;2023-04-03T06:32:47;95604.21;;;5.04;90.78
59329;BME280;45100;46.926;7.452;2023-04-03T06:35:47;95605.60;;;5.09;90.74
59329;BME280;45100;46.926;7.452;2023-04-03T06:41:07;95614.34;;;5.21;88.15
59329;BME280;45100;46.926;7.452;2023-04-03T06:43:36;95611.31;;;5.22;85.96
59329;BME280;45100;46.926;7.452;2023-04-03T06:46:18;95611.25;;;5.24;86.71
59329;BME280;45100;46.926;7.452;2023-04-03T06:48:36;95604.83;;;5.27;86.43
59329;BME280;45100;46.926;7.452;2023-04-03T06:51:11;95610.33;;;5.29;86.45
59329;BME280;45100;46.926;7.452;2023-04-03T06:53:38;95612.45;;;5.31;86.29
59329;BME280;45100;46.926;7.452;2023-04-03T06:56:08;95613.34;;;5.35;87.42
59329;BME280;45100;46.926;7.452;2023-04-03T06:58:39;95613.36;;;5.38;86.02
59329;BME280;45100;46.926;7.452;2023-04-03T07:01:12;95618.67;;;5.38;85.78
59329;BME280;45100;46.926;7.452;2023-04-03T07:03:41;95615.28;;;5.34;85.51
59329;BME280;45100;46.926;7.452;2023-04-03T07:06:12;95626.56;;;5.31;84.64
59329;BME280;45100;46.926;7.452;2023-04-03T07:08:41;95613.71;;;5.27;84.21
59329;BME280;45100;46.926;7.452;2023-04-03T07:11:12;95615.62;;;5.25;85.05
59329;BME280;45100;46.926;7.452;2023-04-03T07:13:42;95618.25;;;5.21;83.52
59329;BME280;45100;46.926;7.452;2023-04-03T07:16:13;95616.12;;;5.15;83.03
59329;BME280;45100;46.926;7.452;2023-04-03T07:18:43;95620.69;;;5.07;84.36
59329;BME280;45100;46.926;7.452;2023-04-03T07:21:14;95624.37;;;5.03;83.50
59329;BME280;45100;46.926;7.452;2023-04-03T07:23:45;95628.42;;;4.99;83.94
59329;BME280;45100;46.926;7.452;2023-04-03T07:26:16;95629.20;;;5.00;84.28
59329;BME280;45100;46.926;7.452;2023-04-03T07:28:49;95633.34;;;4.95;82.62
59329;BME280;45100;46.926;7.452;2023-04-03T07:31:17;95638.56;;;4.85;82.94
59329;BME280;45100;46.926;7.452;2023-04-03T07:33:47;95635.83;;;4.73;82.97
59329;BME280;45100;46.926;7.452;2023-04-03T07:36:20;95637.52;;;4.61;83.55
59329;BME280;45100;46.926;7.452;2023-04-03T07:38:48;95637.09;;;4.56;84.50
59329;BME280;45100;46.926;7.452;2023-04-03T07:41:19;95634.83;;;4.60;83.70
59329;BME280;45100;46.926;7.452;2023-04-03T07:43:50;95640.66;;;4.65;84.19
59329;BME280;45100;46.926;7.452;2023-04-03T07:46:19;95637.59;;;4.65;82.61
59329;BME280;45100;46.926;7.452;2023-04-03T07:48:49;95641.83;;;4.66;83.28
59329;BME280;45100;46.926;7.452;2023-04-03T07:51:20;95643.17;;;4.69;82.35
59329;BME280;45100;46.926;7.452;2023-04-03T07:53:50;95636.41;;;4.73;82.91
59329;BME280;45100;46.926;7.452;2023-04-03T07:56:21;95644.58;;;4.78;81.96
59329;BME280;45100;46.926;7.452;2023-04-03T07:58:51;95648.41;;;4.83;82.32
59329;BME280;45100;46.926;7.452;2023-04-03T08:01:22;95641.91;;;4.86;82.10
59329;BME280;45100;46.926;7.452;2023-04-03T08:03:52;95646.36;;;4.89;81.86
59329;BME280;45100;46.926;7.452;2023-04-03T08:06:23;95644.55;;;4.95;81.13
59329;BME280;45100;46.926;7.452;2023-04-03T08:08:53;95639.59;;;5.00;80.68
59329;BME280;45100;46.926;7.452;2023-04-03T08:13:59;95643.79;;;5.23;81.52
59329;BME280;45100;46.926;7.452;2023-04-03T08:16:30;95642.89;;;5.36;81.16
59329;BME280;45100;46.926;7.452;2023-04-03T08:19:00;95645.52;;;5.52;79.60
59329;BME280;45100;46.926;7.452;2023-04-03T08:21:31;95650.42;;;5.63;76.35
59329;BME280;45100;46.926;7.452;2023-04-03T08:26:37;95644.30;;;5.79;77.66
59329;BME280;45100;46.926;7.452;2023-04-03T08:29:07;95651.25;;;5.87;74.92
59329;BME280;45100;46.926;7.452;2023-04-03T08:31:38;95647.27;;;5.92;75.32
59329;BME280;45100;46.926;7.452;2023-04-03T08:34:09;95647.78;;;5.97;74.58
59329;BME280;45100;46.926;7.452;2023-04-03T08:36:39;95646.91;;;5.97;74.37
59329;BME280;45100;46.926;7.452;2023-04-03T08:39:10;95651.83;;;5.95;74.44
59329;BME280;45100;46.926;7.452;2023-04-03T08:44:41;95652.48;;;6.04;73.57
59329;BME280;45100;46.926;7.452;2023-04-03T08:46:59;95643.62;;;6.12;75.71
59329;BME280;45100;46.926;7.452;2023-04-03T08:49:27;95658.23;;;6.24;75.20
59329;BME280;45100;46.926;7.452;2023-04-03T08:51:49;95655.44;;;6.33;72.43
59329;BME280;45100;46.926;7.452;2023-04-03T08:54:29;95651.66;;;6.31;70.14
59329;BME280;45100;46.926;7.452;2023-04-03T08:56:47;95647.84;;;6.27;72.67
59329;BME280;45100;46.926;7.452;2023-04-03T08:59:24;95659.52;;;6.26;72.38
59329;BME280;45100;46.926;7.452;2023-04-03T09:01:47;95646.11;;;6.27;70.03
59329;BME280;45100;46.926;7.452;2023-04-03T09:04:19;95650.38;;;6.27;70.29
59329;BME280;45100;46.926;7.452;2023-04-03T09:06:53;95649.03;;;6.34;71.13
59329;BME280;45100;46.926;7.452;2023-04-03T09:09:36;95656.09;;;6.43;68.79
59329;BME280;45100;46.926;7.452;2023-04-03T09:14:38;95654.28;;;6.40;68.73
59329;BME280;45100;46.926;7.452;2023-04-03T09:16:55;95643.38;;;6.33;68.56
59329;BME280;45100;46.926;7.452;2023-04-03T09:21:53;95655.06;;;6.31;69.50
59329;BME280;45100;46.926;7.452;2023-04-03T09:24:24;95660.89;;;6.28;67.77
59329;BME280;45100;46.926;7.452;2023-04-03T09:27:04;95654.73;;;6.24;68.62
59329;BME280;45100;46.926;7.452;2023-04-03T09:32:00;95655.69;;;6.28;68.81
59329;BME280;45100;46.926;7.452;2023-04-03T09:34:32;95657.08;;;6.29;68.69
59329;BME280;45100;46.926;7.452;2023-04-03T09:37:00;95662.08;;;6.26;69.25
59329;BME280;45100;46.926;7.452;2023-04-03T09:39:29;95668.44;;;6.19;67.91
59329;BME280;45100;46.926;7.452;2023-04-03T09:42:04;95667.80;;;6.07;67.90
59329;BME280;45100;46.926;7.452;2023-04-03T09:44:31;95674.05;;;6.00;69.46
59329;BME280;45100;46.926;7.452;2023-04-03T09:49:30;95680.42;;;6.08;70.35
59329;BME280;45100;46.926;7.452;2023-04-03T09:54:33;95679.03;;;5.93;68.98
59329;BME280;45100;46.926;7.452;2023-04-03T09:57:06;95678.27;;;5.87;68.62
59329;BME280;45100;46.926;7.452;2023-04-03T09:59:32;95680.18;;;5.81;67.77
59329;BME280;45100;46.926;7.452;2023-04-03T10:02:15;95676.83;;;5.80;69.41
59329;BME280;45100;46.926;7.452;2023-04-03T10:04:40;95673.23;;;5.84;68.88
59329;BME280;45100;46.926;7.452;2023-04-03T10:07:03;95680.00;;;5.85;66.92
59329;BME280;45100;46.926;7.452;2023-04-03T10:09:34;95672.66;;;5.87;68.88
59329;BME280;45100;46.926;7.452;2023-04-03T10:12:09;95678.78;;;5.94;68.54
59329;BME280;45100;46.926;7.452;2023-04-03T10:14:40;95669.24;;;5.91;65.12
59329;BME280;45100;46.926;7.452;2023-04-03T10:17:36;95668.33;;;5.87;67.33
59329;BME280;45100;46.926;7.452;2023-04-03T10:19:41;95665.55;;;5.82;65.78
59329;BME280;45100;46.926;7.452;2023-04-03T10:22:17;95658.11;;;5.77;66.43
59329;BME280;45100;46.926;7.452;2023-04-03T10:25:18;95660.12;;;5.74;66.79
59329;BME280;45100;46.926;7.452;2023-04-03T10:27:13;95665.52;;;5.80;68.19
59329;BME280;45100;46.926;7.452;2023-04-03T10:30:04;95667.84;;;5.91;65.14
59329;BME280;45100;46.926;7.452;2023-04-03T10:34:42;95665.75;;;6.03;64.87
59329;BME280;45100;46.926;7.452;2023-04-03T10:37:26;95662.34;;;6.11;66.73
59329;BME280;45100;46.926;7.452;2023-04-03T10:47:34;95653.42;;;6.62;62.76
59329;BME280;45100;46.926;7.452;2023-04-03T10:52:20;95652.86;;;6.78;61.29
59329;BME280;45100;46.926;7.452;2023-04-03T10:55:08;95655.59;;;6.68;60.71
59329;BME280;45100;46.926;7.452;2023-04-03T10:57:13;95644.68;;;6.61;62.74
59329;BME280;45100;46.926;7.452;2023-04-03T10:59:53;95639.69;;;6.70;61.84
59329;BME280;45100;46.926;7.452;2023-04-03T11:02:33;95644.61;;;6.76;60.74
59329;BME280;45100;46.926;7.452;2023-04-03T11:04:49;95639.47;;;6.71;60.75
59329;BME280;45100;46.926;7.452;2023-04-03T11:07:20;95640.42;;;6.70;61.97
59329;BME280;45100;46.926;7.452;2023-04-03T11:09:49;95640.07;;;6.80;62.74
59329;BME280;45100;46.926;7.452;2023-04-03T11:12:40;95641.70;;;6.96;63.16
59329;BME280;45100;46.926;7.452;2023-04-03T11:14:47;95641.75;;;7.06;64.79
59329;BME280;45100;46.926;7.452;2023-04-03T11:17:27;95644.78;;;7.10;63.97
59329;BME280;45100;46.926;7.452;2023-04-03T11:20:03;95640.83;;;7.13;63.24
59329;BME280;45100;46.926;7.452;2023-04-03T11:27:23;95640.32;;;7.19;64.28
59329;BME280;45100;46.926;7.452;2023-04-03T11:29:53;95633.22;;;7.20;63.79
59329;BME280;45100;46.926;7.452;2023-04-03T11:35:01;95637.44;;;7.08;62.61
59329;BME280;45100;46.926;7.452;2023-04-03T11:37:37;95637.52;;;7.04;62.87
59329;BME280;45100;46.926;7.452;2023-04-03T11:40:06;95627.52;;;7.01;63.48
59329;BME280;45100;46.926;7.452;2023-04-03T11:42:37;95623.66;;;6.95;63.26
59329;BME280;45100;46.926;7.452;2023-04-03T11:47:46;95633.44;;;6.74;62.67
59329;BME280;45100;46.926;7.452;2023-04-03T11:50:04;95638.36;;;6.59;63.03
59329;BME280;45100;46.926;7.452;2023-04-03T11:55:01;95633.65;;;6.50;63.16
59329;BME280;45100;46.926;7.452;2023-04-03T11:57:45;95634.33;;;6.43;63.20
59329;BME280;45100;46.926;7.452;2023-04-03T12:02:36;95625.82;;;6.43;62.78
59329;BME280;45100;46.926;7.452;2023-04-03T12:05:25;95627.69;;;6.46;62.81
59329;BME280;45100;46.926;7.452;2023-04-03T12:07:35;95627.29;;;6.55;63.79
59329;BME280;45100;46.926;7.452;2023-04-03T12:10:14;95617.57;;;6.63;63.86
59329;BME280;45100;46.926;7.452;2023-04-03T12:12:39;95617.85;;;6.68;63.28
59329;BME280;45100;46.926;7.452;2023-04-03T12:15:38;95620.34;;;6.72;63.05
59329;BME280;45100;46.926;7.452;2023-04-03T12:17:38;95616.95;;;6.76;62.32
59329;BME280;45100;46.926;7.452;2023-04-03T12:23:06;95607.71;;;6.68;63.20
59329;BME280;45100;46.926;7.452;2023-04-03T12:25:47;95609.22;;;6.63;61.98
59329;BME280;45100;46.926;7.452;2023-04-03T12:27:42;95610.20;;;6.54;62.74
59329;BME280;45100;46.926;7.452;2023-04-03T12:30:14;95606.38;;;6.49;63.66
59329;BME280;45100;46.926;7.452;2023-04-03T12:32:58;95603.79;;;6.50;64.61
59329;BME280;45100;46.926;7.452;2023-04-03T12:35:19;95604.12;;;6.54;62.76
59329;BME280;45100;46.926;7.452;2023-04-03T12:40:35;95597.71;;;6.68;63.05
59329;BME280;45100;46.926;7.452;2023-04-03T12:43:02;95597.42;;;6.71;61.30
59329;BME280;45100;46.926;7.452;2023-04-03T12:45:21;95607.70;;;6.73;63.55
59329;BME280;45100;46.926;7.452;2023-04-03T12:47:43;95611.20;;;6.76;62.43
59329;BME280;45100;46.926;7.452;2023-04-03T12:50:30;95592.47;;;6.72;61.55
59329;BME280;45100;46.926;7.452;2023-04-03T12:52:54;95606.42;;;6.68;60.22
59329;BME280;45100;46.926;7.452;2023-04-03T12:57:47;95604.15;;;6.45;60.79
59329;BME280;45100;46.926;7.452;2023-04-03T13:02:48;95596.16;;;6.38;61.70
59329;BME280;45100;46.926;7.452;2023-04-03T13:05:20;95587.36;;;6.37;62.87
59329;BME280;45100;46.926;7.452;2023-04-03T13:10:21;95596.84;;;6.49;60.91
59329;BME280;45100;46.926;7.452;2023-04-03T13:12:54;95594.89;;;6.54;61.65
59329;BME280;45100;46.926;7.452;2023-04-03T13:15:29;95592.06;;;6.62;59.63
59329;BME280;45100;46.926;7.452;2023-04-03T13:17:54;95587.25;;;6.68;60.10
59329;BME280;45100;46.926;7.452;2023-04-03T13:20:27;95582.31;;;6.77;60.55
59329;BME280;45100;46.926;7.452;2023-04-03T13:22:57;95584.66;;;6.80;59.41
59329;BME280;45100;46.926;7.452;2023-04-03T13:25:29;95589.19;;;6.77;60.30
59329;BME280;45100;46.926;7.452;2023-04-03T13:27:58;95580.09;;;6.80;60.52
59329;BME280;45100;46.926;7.452;2023-04-03T13:30:29;95584.51;;;6.90;60.68
59329;BME280;45100;46.926;7.452;2023-04-03T13:33:00;95590.66;;;6.91;59.11
59329;BME280;45100;46.926;7.452;2023-04-03T13:35:33;95582.44;;;6.86;57.96
59329;BME280;45100;46.926;7.452;2023-04-03T13:38:01;95587.78;;;6.81;58.86
59329;BME280;45100;46.926;7.452;2023-04-03T13:40:28;95587.73;;;6.82;59.56
59329;BME280;45100;46.926;7.452;2023-04-03T13:43:13;95574.80;;;6.89;59.10
59329;BME280;45100;46.926;7.452;2023-04-03T13:45:32;95568.80;;;6.93;57.76
59329;BME280;45100;46.926;7.452;2023-04-03T13:48:15;95574.58;;;6.95;58.07
59329;BME280;45100;46.926;7.452;2023-04-03T13:50:30;95565.42;;;6.99;57.96
59329;BME280;45100;46.926;7.452;2023-04-03T13:53:03;95564.28;;;7.01;57.09
59329;BME280;45100;46.926;7.452;2023-04-03T13:55:34;95562.38;;;7.03;58.43
59329;BME280;45100;46.926;7.452;2023-04-03T14:00:51;95566.81;;;7.19;57.86
59329;BME280;45100;46.926;7.452;2023-04-03T14:05:33;95575.61;;;7.22;57.78
59329;BME280;45100;46.926;7.452;2023-04-03T14:08:04;95571.20;;;7.15;55.63
59329;BME280;45100;46.926;7.452;2023-04-03T14:10:34;95562.21;;;7.09;57.43
59329;BME280;45100;46.926;7.452;2023-04-03T14:13:05;95565.78;;;7.09;56.87
59329;BME280;45100;46.926;7.452;2023-04-03T14:15:35;95562.43;;;7.05;55.54
59329;BME280;45100;46.926;7.452;2023-04-03T14:18:06;95555.05;;;6.99;56.50
59329;BME280;45100;46.926;7.452;2023-04-03T14:20:36;95548.73;;;6.98;57.32
59329;BME280;45100;46.926;7.452;2023-04-03T14:23:08;95558.95;;;7.00;55.98
59329;BME280;45100;46.926;7.452;2023-04-03T14:25:39;95558.22;;;7.04;56.54
59329;BME280;45100;46.926;7.452;2023-04-03T14:28:16;95561.33;;;7.04;55.57
59329;BME280;45100;46.926;7.452;2023-04-03T14:30:38;95552.14;;;6.92;54.45
59329;BME280;45100;46.926;7.452;2023-04-03T14:33:14;95565.16;;;6.75;56.78
59329;BME280;45100;46.926;7.452;2023-04-03T14:35:40;95552.21;;;6.65;57.81
59329;BME280;45100;46.926;7.452;2023-04-03T14:38:30;95547.14;;;6.66;57.90
59329;BME280;45100;46.926;7.452;2023-04-03T14:43:16;95547.78;;;6.53;56.62
59329;BME280;45100;46.926;7.452;2023-04-03T14:45:46;95559.94;;;6.45;57.38
59329;BME280;45100;46.926;7.452;2023-04-03T14:50:51;95554.75;;;6.38;57.84
59329;BME280;45100;46.926;7.452;2023-04-03T14:53:25;95551.39;;;6.34;55.55
59329;BME280;45100;46.926;7.452;2023-04-03T14:55:51;95547.92;;;6.26;55.53
59329;BME280;45100;46.926;7.452;2023-04-03T14:58:21;95541.80;;;6.23;57.11
59329;BME280;45100;46.926;7.452;2023-04-03T15:00:52;95539.42;;;6.26;56.83